Chanson — ZDGDU2 — position and weather

sailwx.info

Track history (hours):
 
Tides and Currents Weather Stations Pressure Air Temp Water Temp Dewpoint Dewpoint Depression Visibility Wind Speed Wind Dir Waves Ship Positions

Chanson

Last reported at 2017-Oct-25 03:07 UTC. Time now 2017-Nov-19 04:56 UTC.
Position N 26°55' W 080°03'.
Warning: this ship's position is 25 days out of date.

Length 30 m.

MMSI: 319062100.

Date/timePositionNaut miles runAvg speedWind from/ knotsBaromVisibWave heightAir tempDewpointWater temp
2017-Oct-25 03:07N 26°55' W 080°03'1 9.6
2017-Oct-25 03:00N 26°56' W 080°03'  
2017-Oct-20 14:47N 34°38' W 076°43'6 7.4
2017-Oct-20 14:00N 34°43' W 076°42'4 7.6
2017-Oct-20 13:30N 34°47' W 076°41'3 6.6
2017-Oct-20 13:00N 34°50' W 076°41'  
2017-Oct-16 17:46N 39°40' W 074°08'310.1
2017-Oct-16 17:26N 39°43' W 074°06'52 9.6
2017-Oct-16 12:00N 40°36' W 074°03'5 8.0
2017-Oct-16 11:25N 40°40' W 074°03'2 5.6
2017-Oct-16 11:00N 40°43' W 074°02'1 1.2
2017-Oct-16 10:28N 40°43' W 074°03'0 0.0
2017-Oct-16 09:58N 40°43' W 074°03'0 0.0
2017-Oct-16 09:28N 40°43' W 074°03'0 0.0
2017-Oct-16 08:58N 40°43' W 074°03'0 0.0
2017-Oct-16 08:28N 40°43' W 074°03'0 0.0
2017-Oct-16 07:58N 40°43' W 074°03'0 0.0
2017-Oct-16 07:28N 40°43' W 074°03'0 0.0
2017-Oct-16 06:58N 40°43' W 074°03'0 0.0
2017-Oct-16 06:28N 40°43' W 074°03'0 0.0
2017-Oct-16 05:55N 40°43' W 074°03'0 0.0
2017-Oct-16 05:28N 40°43' W 074°03'0 0.0
2017-Oct-16 04:58N 40°43' W 074°03'0 0.0
2017-Oct-16 04:28N 40°43' W 074°03'0 0.0
2017-Oct-16 03:58N 40°43' W 074°03'0 0.0
2017-Oct-16 03:28N 40°43' W 074°03'0 0.0
2017-Oct-16 02:58N 40°43' W 074°03'0 0.0
2017-Oct-16 02:28N 40°43' W 074°03'0 0.0
2017-Oct-16 01:58N 40°43' W 074°03'0 0.0
2017-Oct-16 01:28N 40°43' W 074°03'0 0.0
2017-Oct-16 00:55N 40°43' W 074°03'0 0.0
2017-Oct-16 00:28N 40°43' W 074°03'0 0.0
2017-Oct-15 23:58N 40°43' W 074°03'0 0.0
2017-Oct-15 23:28N 40°43' W 074°03'0 0.0
2017-Oct-15 22:58N 40°43' W 074°03'0 0.0
2017-Oct-15 22:28N 40°43' W 074°03'0 0.0
2017-Oct-15 21:58N 40°43' W 074°03'0 0.0
2017-Oct-15 21:28N 40°43' W 074°03'0 0.0
2017-Oct-15 20:58N 40°43' W 074°03'0 0.0
2017-Oct-15 20:28N 40°43' W 074°03'0 0.0
2017-Oct-15 19:58N 40°43' W 074°03'0 0.0
2017-Oct-15 19:28N 40°43' W 074°03'0 0.0
2017-Oct-15 18:58N 40°43' W 074°03'0 0.0
2017-Oct-15 18:28N 40°43' W 074°03'0 0.0
2017-Oct-15 17:55N 40°43' W 074°03'0 0.0
2017-Oct-15 17:28N 40°43' W 074°03'0 0.0
2017-Oct-15 16:58N 40°43' W 074°03'0 0.0
2017-Oct-15 16:28N 40°43' W 074°03'0 0.0
2017-Oct-15 16:00N 40°43' W 074°03'3 5.8
2017-Oct-15 15:30N 40°43' W 073°59'  
Track history (hours):
 
Tides and Currents Weather Stations Pressure Air Temp Water Temp Dewpoint Dewpoint Depression Visibility Wind Speed Wind Dir Waves Ship Positions

Chanson

Last reported at 2017-Oct-25 03:07 UTC. Time now 2017-Nov-19 04:56 UTC.
Position N 26°55' W 080°03'.
Warning: this ship's position is 25 days out of date.

Length 30 m.

MMSI: 319062100.

Date/timePositionNaut miles runAvg speedWind from/ knotsBaromVisibWave heightAir tempDewpointWater temp
2017-Oct-25 03:07N 26°55' W 080°03'1 9.6
2017-Oct-25 03:00N 26°56' W 080°03'  
2017-Oct-20 14:47N 34°38' W 076°43'6 7.4
2017-Oct-20 14:00N 34°43' W 076°42'4 7.6
2017-Oct-20 13:30N 34°47' W 076°41'3 6.6
2017-Oct-20 13:00N 34°50' W 076°41'  
2017-Oct-16 17:46N 39°40' W 074°08'310.1
2017-Oct-16 17:26N 39°43' W 074°06'52 9.6
2017-Oct-16 12:00N 40°36' W 074°03'5 8.0
2017-Oct-16 11:25N 40°40' W 074°03'2 5.6
2017-Oct-16 11:00N 40°43' W 074°02'1 1.2
2017-Oct-16 10:28N 40°43' W 074°03'0 0.0
2017-Oct-16 09:58N 40°43' W 074°03'0 0.0
2017-Oct-16 09:28N 40°43' W 074°03'0 0.0
2017-Oct-16 08:58N 40°43' W 074°03'0 0.0
2017-Oct-16 08:28N 40°43' W 074°03'0 0.0
2017-Oct-16 07:58N 40°43' W 074°03'0 0.0
2017-Oct-16 07:28N 40°43' W 074°03'0 0.0
2017-Oct-16 06:58N 40°43' W 074°03'0 0.0
2017-Oct-16 06:28N 40°43' W 074°03'0 0.0
2017-Oct-16 05:55N 40°43' W 074°03'0 0.0
2017-Oct-16 05:28N 40°43' W 074°03'0 0.0
2017-Oct-16 04:58N 40°43' W 074°03'0 0.0
2017-Oct-16 04:28N 40°43' W 074°03'0 0.0
2017-Oct-16 03:58N 40°43' W 074°03'0 0.0
2017-Oct-16 03:28N 40°43' W 074°03'0 0.0
2017-Oct-16 02:58N 40°43' W 074°03'0 0.0
2017-Oct-16 02:28N 40°43' W 074°03'0 0.0
2017-Oct-16 01:58N 40°43' W 074°03'0 0.0
2017-Oct-16 01:28N 40°43' W 074°03'0 0.0
2017-Oct-16 00:55N 40°43' W 074°03'0 0.0
2017-Oct-16 00:28N 40°43' W 074°03'0 0.0
2017-Oct-15 23:58N 40°43' W 074°03'0 0.0
2017-Oct-15 23:28N 40°43' W 074°03'0 0.0
2017-Oct-15 22:58N 40°43' W 074°03'0 0.0
2017-Oct-15 22:28N 40°43' W 074°03'0 0.0
2017-Oct-15 21:58N 40°43' W 074°03'0 0.0
2017-Oct-15 21:28N 40°43' W 074°03'0 0.0
2017-Oct-15 20:58N 40°43' W 074°03'0 0.0
2017-Oct-15 20:28N 40°43' W 074°03'0 0.0
2017-Oct-15 19:58N 40°43' W 074°03'0 0.0
2017-Oct-15 19:28N 40°43' W 074°03'0 0.0
2017-Oct-15 18:58N 40°43' W 074°03'0 0.0
2017-Oct-15 18:28N 40°43' W 074°03'0 0.0
2017-Oct-15 17:55N 40°43' W 074°03'0 0.0
2017-Oct-15 17:28N 40°43' W 074°03'0 0.0
2017-Oct-15 16:58N 40°43' W 074°03'0 0.0
2017-Oct-15 16:28N 40°43' W 074°03'0 0.0
2017-Oct-15 16:00N 40°43' W 074°03'3 5.8
2017-Oct-15 15:30N 40°43' W 073°59'  

Dump ship's entire track history